sensor_id;sensor_type;location;lat;lon;timestamp;temperature;humidity
20422;DHT22;10370;53.102;18.034;2023-01-06T00:26:48;2.30;99.90
20422;DHT22;10370;53.102;18.034;2023-01-06T00:32:09;2.20;99.90
20422;DHT22;10370;53.102;18.034;2023-01-06T00:37:31;2.00;99.90
20422;DHT22;10370;53.102;18.034;2023-01-06T00:42:53;1.90;99.90
20422;DHT22;10370;53.102;18.034;2023-01-06T00:53:34;1.60;99.90
20422;DHT22;10370;53.102;18.034;2023-01-06T00:58:57;1.50;99.90
20422;DHT22;10370;53.102;18.034;2023-01-06T01:04:20;1.40;99.90
20422;DHT22;10370;53.102;18.034;2023-01-06T01:09:41;1.40;99.90
20422;DHT22;10370;53.102;18.034;2023-01-06T01:15:03;1.30;99.90
20422;DHT22;10370;53.102;18.034;2023-01-06T01:20:24;1.40;99.90
20422;DHT22;10370;53.102;18.034;2023-01-06T01:25:45;1.50;99.90
20422;DHT22;10370;53.102;18.034;2023-01-06T01:31:06;1.60;99.90
20422;DHT22;10370;53.102;18.034;2023-01-06T01:36:27;1.70;99.90
20422;DHT22;10370;53.102;18.034;2023-01-06T01:41:49;1.80;99.90
20422;DHT22;10370;53.102;18.034;2023-01-06T01:47:17;1.90;99.90
20422;DHT22;10370;53.102;18.034;2023-01-06T01:52:40;1.90;99.90
20422;DHT22;10370;53.102;18.034;2023-01-06T02:14:59;2.10;99.90
20422;DHT22;10370;53.102;18.034;2023-01-06T02:20:33;2.20;99.90
20422;DHT22;10370;53.102;18.034;2023-01-06T02:26:14;2.20;99.90
20422;DHT22;10370;53.102;18.034;2023-01-06T02:42:47;2.30;99.90
20422;DHT22;10370;53.102;18.034;2023-01-06T02:48:25;2.30;99.90
20422;DHT22;10370;53.102;18.034;2023-01-06T02:59:35;2.30;99.90
20422;DHT22;10370;53.102;18.034;2023-01-06T03:05:00;2.40;99.90
20422;DHT22;10370;53.102;18.034;2023-01-06T03:10:22;2.40;99.90
20422;DHT22;10370;53.102;18.034;2023-01-06T03:15:54;2.30;99.90
20422;DHT22;10370;53.102;18.034;2023-01-06T03:27:31;2.40;99.90
20422;DHT22;10370;53.102;18.034;2023-01-06T03:33:11;2.40;99.90
20422;DHT22;10370;53.102;18.034;2023-01-06T03:38:45;2.30;99.90
20422;DHT22;10370;53.102;18.034;2023-01-06T03:44:12;2.20;99.90
20422;DHT22;10370;53.102;18.034;2023-01-06T03:55:02;2.20;99.90
20422;DHT22;10370;53.102;18.034;2023-01-06T04:00:27;2.20;99.90
20422;DHT22;10370;53.102;18.034;2023-01-06T04:05:48;2.20;99.90
20422;DHT22;10370;53.102;18.034;2023-01-06T04:11:10;2.20;99.90
20422;DHT22;10370;53.102;18.034;2023-01-06T04:29:00;2.00;99.90
20422;DHT22;10370;53.102;18.034;2023-01-06T04:34:22;2.00;99.90
20422;DHT22;10370;53.102;18.034;2023-01-06T04:39:43;2.00;99.90
20422;DHT22;10370;53.102;18.034;2023-01-06T04:45:05;1.90;99.90
20422;DHT22;10370;53.102;18.034;2023-01-06T04:50:26;1.80;99.90
20422;DHT22;10370;53.102;18.034;2023-01-06T04:55:47;1.70;99.90
20422;DHT22;10370;53.102;18.034;2023-01-06T05:01:10;1.70;99.90
20422;DHT22;10370;53.102;18.034;2023-01-06T05:06:41;1.60;99.90
20422;DHT22;10370;53.102;18.034;2023-01-06T05:12:02;1.50;99.90
20422;DHT22;10370;53.102;18.034;2023-01-06T05:17:24;1.50;99.90
20422;DHT22;10370;53.102;18.034;2023-01-06T05:22:45;1.50;99.90
20422;DHT22;10370;53.102;18.034;2023-01-06T05:28:06;1.50;99.90
20422;DHT22;10370;53.102;18.034;2023-01-06T05:33:27;1.50;99.90
20422;DHT22;10370;53.102;18.034;2023-01-06T05:50:50;1.40;99.90
20422;DHT22;10370;53.102;18.034;2023-01-06T05:56:13;1.40;99.90
20422;DHT22;10370;53.102;18.034;2023-01-06T06:01:35;1.40;99.90
20422;DHT22;10370;53.102;18.034;2023-01-06T06:06:56;1.50;99.90
20422;DHT22;10370;53.102;18.034;2023-01-06T06:12:17;1.50;99.90
20422;DHT22;10370;53.102;18.034;2023-01-06T06:17:38;1.50;99.90
20422;DHT22;10370;53.102;18.034;2023-01-06T06:23:01;1.50;99.90
20422;DHT22;10370;53.102;18.034;2023-01-06T06:28:32;1.60;99.90
20422;DHT22;10370;53.102;18.034;2023-01-06T06:34:05;1.50;99.90
20422;DHT22;10370;53.102;18.034;2023-01-06T06:39:28;1.40;99.90
20422;DHT22;10370;53.102;18.034;2023-01-06T06:44:51;1.50;99.90
20422;DHT22;10370;53.102;18.034;2023-01-06T06:50:13;1.50;99.90
20422;DHT22;10370;53.102;18.034;2023-01-06T06:55:37;1.50;99.90
20422;DHT22;10370;53.102;18.034;2023-01-06T07:01:12;1.60;99.90
20422;DHT22;10370;53.102;18.034;2023-01-06T07:06:33;1.50;99.90
20422;DHT22;10370;53.102;18.034;2023-01-06T07:11:56;1.50;99.90
20422;DHT22;10370;53.102;18.034;2023-01-06T07:17:24;1.60;99.90
20422;DHT22;10370;53.102;18.034;2023-01-06T07:22:46;1.60;99.90
20422;DHT22;10370;53.102;18.034;2023-01-06T07:28:07;1.70;99.90
20422;DHT22;10370;53.102;18.034;2023-01-06T07:33:29;1.70;99.90
20422;DHT22;10370;53.102;18.034;2023-01-06T07:38:51;1.80;99.90
20422;DHT22;10370;53.102;18.034;2023-01-06T07:44:13;1.80;99.90
20422;DHT22;10370;53.102;18.034;2023-01-06T07:49:38;1.80;99.90
20422;DHT22;10370;53.102;18.034;2023-01-06T07:55:03;1.80;99.90
20422;DHT22;10370;53.102;18.034;2023-01-06T08:00:29;1.90;99.90
20422;DHT22;10370;53.102;18.034;2023-01-06T08:11:12;1.80;99.90
20422;DHT22;10370;53.102;18.034;2023-01-06T08:16:34;1.90;99.90
20422;DHT22;10370;53.102;18.034;2023-01-06T08:27:57;2.00;99.90
20422;DHT22;10370;53.102;18.034;2023-01-06T08:38:56;2.10;99.90
20422;DHT22;10370;53.102;18.034;2023-01-06T08:44:18;2.20;99.90
20422;DHT22;10370;53.102;18.034;2023-01-06T08:49:41;2.10;99.90
20422;DHT22;10370;53.102;18.034;2023-01-06T08:55:10;2.20;99.90
20422;DHT22;10370;53.102;18.034;2023-01-06T09:00:38;2.30;99.90
20422;DHT22;10370;53.102;18.034;2023-01-06T09:06:08;2.30;99.90
20422;DHT22;10370;53.102;18.034;2023-01-06T09:11:31;2.40;99.90
20422;DHT22;10370;53.102;18.034;2023-01-06T09:22:27;2.50;99.90
20422;DHT22;10370;53.102;18.034;2023-01-06T09:27:48;2.50;99.90
20422;DHT22;10370;53.102;18.034;2023-01-06T09:33:09;2.50;99.90
20422;DHT22;10370;53.102;18.034;2023-01-06T09:38:30;2.60;99.90
20422;DHT22;10370;53.102;18.034;2023-01-06T09:44:10;2.60;99.90
20422;DHT22;10370;53.102;18.034;2023-01-06T09:50:28;2.60;99.90
20422;DHT22;10370;53.102;18.034;2023-01-06T10:01:09;2.70;99.90
20422;DHT22;10370;53.102;18.034;2023-01-06T10:18:03;2.70;99.90
20422;DHT22;10370;53.102;18.034;2023-01-06T10:34:56;2.70;99.90
20422;DHT22;10370;53.102;18.034;2023-01-06T10:40:22;2.70;99.90
20422;DHT22;10370;53.102;18.034;2023-01-06T10:45:48;2.80;99.90
20422;DHT22;10370;53.102;18.034;2023-01-06T11:30:50;2.90;99.90
20422;DHT22;10370;53.102;18.034;2023-01-06T11:36:17;2.90;99.90
20422;DHT22;10370;53.102;18.034;2023-01-06T11:41:43;2.90;99.90
20422;DHT22;10370;53.102;18.034;2023-01-06T11:52:35;2.80;99.90
20422;DHT22;10370;53.102;18.034;2023-01-06T11:58:10;2.70;99.90
20422;DHT22;10370;53.102;18.034;2023-01-06T12:03:36;2.70;99.90
20422;DHT22;10370;53.102;18.034;2023-01-06T12:20:14;2.70;99.90
20422;DHT22;10370;53.102;18.034;2023-01-06T12:49:58;2.50;99.90
20422;DHT22;10370;53.102;18.034;2023-01-06T13:09:01;2.00;99.90
20422;DHT22;10370;53.102;18.034;2023-01-06T13:19:54;1.80;99.90
20422;DHT22;10370;53.102;18.034;2023-01-06T14:01:12;1.60;99.90
20422;DHT22;10370;53.102;18.034;2023-01-06T14:07:02;1.60;99.90
20422;DHT22;10370;53.102;18.034;2023-01-06T14:19:18;1.70;99.90
20422;DHT22;10370;53.102;18.034;2023-01-06T14:24:52;1.70;99.90
20422;DHT22;10370;53.102;18.034;2023-01-06T14:30:29;1.70;99.90
20422;DHT22;10370;53.102;18.034;2023-01-06T14:36:26;1.70;99.90
20422;DHT22;10370;53.102;18.034;2023-01-06T14:42:19;1.70;99.90
20422;DHT22;10370;53.102;18.034;2023-01-06T14:48:15;1.70;99.90
20422;DHT22;10370;53.102;18.034;2023-01-06T14:54:26;1.70;99.90
20422;DHT22;10370;53.102;18.034;2023-01-06T15:00:15;1.80;99.90
20422;DHT22;10370;53.102;18.034;2023-01-06T15:17:21;1.90;99.90
20422;DHT22;10370;53.102;18.034;2023-01-06T15:22:48;1.90;99.90
20422;DHT22;10370;53.102;18.034;2023-01-06T15:28:30;2.00;99.90
20422;DHT22;10370;53.102;18.034;2023-01-06T15:33:52;2.00;99.90
20422;DHT22;10370;53.102;18.034;2023-01-06T15:39:31;2.10;99.90
20422;DHT22;10370;53.102;18.034;2023-01-06T15:44:59;2.10;99.90
20422;DHT22;10370;53.102;18.034;2023-01-06T15:50:25;2.20;99.90
20422;DHT22;10370;53.102;18.034;2023-01-06T15:55:52;2.20;99.90
20422;DHT22;10370;53.102;18.034;2023-01-06T16:01:21;2.20;99.90
20422;DHT22;10370;53.102;18.034;2023-01-06T16:06:46;2.30;99.90
20422;DHT22;10370;53.102;18.034;2023-01-06T16:24:54;2.50;99.90
20422;DHT22;10370;53.102;18.034;2023-01-06T16:30:33;2.60;99.90
20422;DHT22;10370;53.102;18.034;2023-01-06T16:35:56;2.60;99.90
20422;DHT22;10370;53.102;18.034;2023-01-06T16:47:08;2.70;99.90
20422;DHT22;10370;53.102;18.034;2023-01-06T16:52:29;2.80;99.90
20422;DHT22;10370;53.102;18.034;2023-01-06T16:57:51;2.80;99.90
20422;DHT22;10370;53.102;18.034;2023-01-06T17:03:15;2.80;99.90
20422;DHT22;10370;53.102;18.034;2023-01-06T17:08:37;2.90;99.90
20422;DHT22;10370;53.102;18.034;2023-01-06T17:14:01;2.90;99.90
20422;DHT22;10370;53.102;18.034;2023-01-06T17:19:25;2.90;99.90
20422;DHT22;10370;53.102;18.034;2023-01-06T17:24:47;3.00;99.90
20422;DHT22;10370;53.102;18.034;2023-01-06T17:30:17;3.00;99.90
20422;DHT22;10370;53.102;18.034;2023-01-06T17:35:43;3.10;99.90
20422;DHT22;10370;53.102;18.034;2023-01-06T17:41:08;3.10;99.90
20422;DHT22;10370;53.102;18.034;2023-01-06T17:46:35;3.10;99.90
20422;DHT22;10370;53.102;18.034;2023-01-06T17:51:59;3.20;99.90
20422;DHT22;10370;53.102;18.034;2023-01-06T17:57:20;3.20;99.90
20422;DHT22;10370;53.102;18.034;2023-01-06T18:02:45;3.20;99.90
20422;DHT22;10370;53.102;18.034;2023-01-06T18:13:36;3.30;99.90
20422;DHT22;10370;53.102;18.034;2023-01-06T18:24:42;3.40;99.90
20422;DHT22;10370;53.102;18.034;2023-01-06T18:30:20;3.50;99.90
20422;DHT22;10370;53.102;18.034;2023-01-06T18:35:42;3.50;99.90
20422;DHT22;10370;53.102;18.034;2023-01-06T18:41:10;3.60;99.90
20422;DHT22;10370;53.102;18.034;2023-01-06T18:46:32;3.60;99.90
20422;DHT22;10370;53.102;18.034;2023-01-06T18:51:54;3.60;99.90
20422;DHT22;10370;53.102;18.034;2023-01-06T18:57:27;3.70;99.90
20422;DHT22;10370;53.102;18.034;2023-01-06T19:02:51;3.80;99.90
20422;DHT22;10370;53.102;18.034;2023-01-06T19:08:22;3.80;99.90
20422;DHT22;10370;53.102;18.034;2023-01-06T19:13:54;3.90;99.90
20422;DHT22;10370;53.102;18.034;2023-01-06T19:30:38;4.00;99.90
20422;DHT22;10370;53.102;18.034;2023-01-06T19:42:23;4.00;99.90
20422;DHT22;10370;53.102;18.034;2023-01-06T19:47:49;3.90;99.90
20422;DHT22;10370;53.102;18.034;2023-01-06T20:12:00;3.80;99.90
20422;DHT22;10370;53.102;18.034;2023-01-06T20:17:28;3.90;99.90
20422;DHT22;10370;53.102;18.034;2023-01-06T20:22:49;3.90;99.90
20422;DHT22;10370;53.102;18.034;2023-01-06T20:59:13;3.50;99.90
20422;DHT22;10370;53.102;18.034;2023-01-06T21:04:34;3.40;99.90
20422;DHT22;10370;53.102;18.034;2023-01-06T21:09:59;3.20;99.90
20422;DHT22;10370;53.102;18.034;2023-01-06T21:15:28;3.10;99.90
20422;DHT22;10370;53.102;18.034;2023-01-06T21:26:09;2.90;99.90
20422;DHT22;10370;53.102;18.034;2023-01-06T21:37:28;2.90;99.90
20422;DHT22;10370;53.102;18.034;2023-01-06T21:42:50;2.90;99.90
20422;DHT22;10370;53.102;18.034;2023-01-06T21:48:29;2.90;99.90
20422;DHT22;10370;53.102;18.034;2023-01-06T21:53:50;2.90;99.90
20422;DHT22;10370;53.102;18.034;2023-01-06T22:04:40;3.20;99.90
20422;DHT22;10370;53.102;18.034;2023-01-06T22:10:05;3.40;99.90
20422;DHT22;10370;53.102;18.034;2023-01-06T22:15:30;3.50;99.90
20422;DHT22;10370;53.102;18.034;2023-01-06T22:20:51;3.70;99.90
20422;DHT22;10370;53.102;18.034;2023-01-06T22:26:22;3.80;99.90
20422;DHT22;10370;53.102;18.034;2023-01-06T22:31:43;3.90;99.90
20422;DHT22;10370;53.102;18.034;2023-01-06T22:37:25;4.00;99.90
20422;DHT22;10370;53.102;18.034;2023-01-06T22:42:46;4.20;99.90
20422;DHT22;10370;53.102;18.034;2023-01-06T22:48:07;4.30;99.90
20422;DHT22;10370;53.102;18.034;2023-01-06T22:53:29;4.40;99.90
20422;DHT22;10370;53.102;18.034;2023-01-06T22:58:50;4.40;99.90
20422;DHT22;10370;53.102;18.034;2023-01-06T23:04:13;4.50;99.90
20422;DHT22;10370;53.102;18.034;2023-01-06T23:14:55;4.50;99.90
20422;DHT22;10370;53.102;18.034;2023-01-06T23:20:16;4.60;99.90
20422;DHT22;10370;53.102;18.034;2023-01-06T23:25:37;4.50;99.90
20422;DHT22;10370;53.102;18.034;2023-01-06T23:31:13;4.60;99.90
20422;DHT22;10370;53.102;18.034;2023-01-06T23:36:35;4.60;99.90
20422;DHT22;10370;53.102;18.034;2023-01-06T23:41:56;4.60;99.90
20422;DHT22;10370;53.102;18.034;2023-01-06T23:47:19;4.60;99.90
20422;DHT22;10370;53.102;18.034;2023-01-06T23:52:40;4.60;99.90
20422;DHT22;10370;53.102;18.034;2023-01-06T23:58:02;4.60;99.90
